ExpreSS Skopelitis — SW3130 — position and weather

sailwx.info

Track history (hours):
 
Tides and Currents Weather Stations Pressure Air Temp Water Temp Dewpoint Dewpoint Depression Visibility Wind Speed Wind Dir Waves Ship Positions

ExpreSS Skopelitis

Last reported at 2017-Aug-16 11:50 UTC. Time now 2017-Aug-16 21:47 UTC.
Position N 36°59' E 025°22'.

Length 45 m; draft 2.4 m.

Type: Passenger vessel. MMSI: 237029400.

Date/timePositionNaut miles runAvg speedWind from/ knotsBaromVisibWave heightAir tempDewpointWater temp
2017-Aug-16 11:50N 36°59' E 025°22'412.6
2017-Aug-16 11:30N 37°03' E 025°20'4 7.4
2017-Aug-16 11:00N 37°06' E 025°22'0 0.0
2017-Aug-16 10:30N 37°06' E 025°22'0 0.0
2017-Aug-16 10:00N 37°06' E 025°22'2 4.4
2017-Aug-16 09:30N 37°05' E 025°20'611.2
2017-Aug-16 09:00N 36°60' E 025°22'0 0.0
2017-Aug-15 09:11N 36°59' E 025°22'212.2
2017-Aug-15 09:00N 37°01' E 025°21'510.4
2017-Aug-15 08:30N 37°06' E 025°22'1 1.5
2017-Aug-15 08:00N 37°06' E 025°21'5 9.8
2017-Aug-15 07:30N 37°01' E 025°21'2 0.1
2017-Aug-14 11:43N 36°59' E 025°22'312.4
2017-Aug-14 11:30N 37°02' E 025°21'5 9.6
2017-Aug-14 11:00N 37°06' E 025°22'0 0.0
2017-Aug-14 10:30N 37°06' E 025°22'0 0.0
2017-Aug-14 10:00N 37°06' E 025°22'2 3.3
2017-Aug-14 09:30N 37°06' E 025°21'510.9
2017-Aug-14 09:00N 37°00' E 025°22'1 0.0
2017-Aug-12 11:46N 36°59' E 025°22'312.2
2017-Aug-12 11:30N 37°02' E 025°21'4 8.7
2017-Aug-12 11:00N 37°06' E 025°22'0 0.0
2017-Aug-12 10:30N 37°06' E 025°22'0 0.0
2017-Aug-12 10:00N 37°06' E 025°22'1 2.6
2017-Aug-12 09:30N 37°06' E 025°21'510.5
2017-Aug-12 09:00N 37°01' E 025°22'1 0.1
2017-Aug-11 11:50N 36°59' E 025°22'412.1
2017-Aug-11 11:31N 37°03' E 025°20'4 7.6
2017-Aug-11 11:01N 37°06' E 025°22'0 0.0
2017-Aug-11 10:31N 37°06' E 025°22'0 0.0
2017-Aug-11 10:00N 37°06' E 025°22'0 0.0
2017-Aug-11 09:30N 37°06' E 025°22'0 0.0
2017-Aug-11 09:01N 37°06' E 025°22'0 0.0
2017-Aug-11 08:31N 37°06' E 025°22'0 0.4
2017-Aug-11 08:01N 37°06' E 025°22'5 9.5
2017-Aug-11 07:31N 37°02' E 025°21'2 0.1
2017-Aug-10 09:15N 36°59' E 025°22'312.4
2017-Aug-10 09:00N 37°02' E 025°21'4 9.0
2017-Aug-10 08:30N 37°06' E 025°22'0 0.3
2017-Aug-10 08:00N 37°06' E 025°22'5 9.5
2017-Aug-10 07:30N 37°02' E 025°21'3 0.1
2017-Aug-09 11:46N 36°59' E 025°22'312.2
2017-Aug-09 11:30N 37°02' E 025°21'4 8.7
2017-Aug-09 11:00N 37°06' E 025°22'0 0.0
2017-Aug-09 10:30N 37°06' E 025°22'0 0.2
2017-Aug-09 10:00N 37°06' E 025°22'5 9.4
2017-Aug-09 09:30N 37°02' E 025°21'3 0.1
2017-Aug-08 09:13N 36°59' E 025°22'312.3
2017-Aug-08 09:01N 37°02' E 025°21'5 9.7
2017-Aug-08 08:30N 37°06' E 025°22'0 0.0
2017-Aug-08 08:00N 37°06' E 025°22'4 7.8
2017-Aug-08 07:30N 37°03' E 025°21'4 0.2
2017-Aug-07 11:45N 36°59' E 025°22'312.2
2017-Aug-07 11:30N 37°02' E 025°21'5 9.1
2017-Aug-07 11:00N 37°06' E 025°22'0 0.0
2017-Aug-07 10:30N 37°06' E 025°22'0 0.0
2017-Aug-07 10:00N 37°06' E 025°22'0 0.0
2017-Aug-07 09:30N 37°06' E 025°22'3 5.8
2017-Aug-07 09:00N 37°04' E 025°20'  
Track history (hours):
 
Tides and Currents Weather Stations Pressure Air Temp Water Temp Dewpoint Dewpoint Depression Visibility Wind Speed Wind Dir Waves Ship Positions

ExpreSS Skopelitis

Last reported at 2017-Aug-16 11:50 UTC. Time now 2017-Aug-16 21:47 UTC.
Position N 36°59' E 025°22'.

Length 45 m; draft 2.4 m.

Type: Passenger vessel. MMSI: 237029400.

Date/timePositionNaut miles runAvg speedWind from/ knotsBaromVisibWave heightAir tempDewpointWater temp
2017-Aug-16 11:50N 36°59' E 025°22'412.6
2017-Aug-16 11:30N 37°03' E 025°20'4 7.4
2017-Aug-16 11:00N 37°06' E 025°22'0 0.0
2017-Aug-16 10:30N 37°06' E 025°22'0 0.0
2017-Aug-16 10:00N 37°06' E 025°22'2 4.4
2017-Aug-16 09:30N 37°05' E 025°20'611.2
2017-Aug-16 09:00N 36°60' E 025°22'0 0.0
2017-Aug-15 09:11N 36°59' E 025°22'212.2
2017-Aug-15 09:00N 37°01' E 025°21'510.4
2017-Aug-15 08:30N 37°06' E 025°22'1 1.5
2017-Aug-15 08:00N 37°06' E 025°21'5 9.8
2017-Aug-15 07:30N 37°01' E 025°21'2 0.1
2017-Aug-14 11:43N 36°59' E 025°22'312.4
2017-Aug-14 11:30N 37°02' E 025°21'5 9.6
2017-Aug-14 11:00N 37°06' E 025°22'0 0.0
2017-Aug-14 10:30N 37°06' E 025°22'0 0.0
2017-Aug-14 10:00N 37°06' E 025°22'2 3.3
2017-Aug-14 09:30N 37°06' E 025°21'510.9
2017-Aug-14 09:00N 37°00' E 025°22'1 0.0
2017-Aug-12 11:46N 36°59' E 025°22'312.2
2017-Aug-12 11:30N 37°02' E 025°21'4 8.7
2017-Aug-12 11:00N 37°06' E 025°22'0 0.0
2017-Aug-12 10:30N 37°06' E 025°22'0 0.0
2017-Aug-12 10:00N 37°06' E 025°22'1 2.6
2017-Aug-12 09:30N 37°06' E 025°21'510.5
2017-Aug-12 09:00N 37°01' E 025°22'1 0.1
2017-Aug-11 11:50N 36°59' E 025°22'412.1
2017-Aug-11 11:31N 37°03' E 025°20'4 7.6
2017-Aug-11 11:01N 37°06' E 025°22'0 0.0
2017-Aug-11 10:31N 37°06' E 025°22'0 0.0
2017-Aug-11 10:00N 37°06' E 025°22'0 0.0
2017-Aug-11 09:30N 37°06' E 025°22'0 0.0
2017-Aug-11 09:01N 37°06' E 025°22'0 0.0
2017-Aug-11 08:31N 37°06' E 025°22'0 0.4
2017-Aug-11 08:01N 37°06' E 025°22'5 9.5
2017-Aug-11 07:31N 37°02' E 025°21'2 0.1
2017-Aug-10 09:15N 36°59' E 025°22'312.4
2017-Aug-10 09:00N 37°02' E 025°21'4 9.0
2017-Aug-10 08:30N 37°06' E 025°22'0 0.3
2017-Aug-10 08:00N 37°06' E 025°22'5 9.5
2017-Aug-10 07:30N 37°02' E 025°21'3 0.1
2017-Aug-09 11:46N 36°59' E 025°22'312.2
2017-Aug-09 11:30N 37°02' E 025°21'4 8.7
2017-Aug-09 11:00N 37°06' E 025°22'0 0.0
2017-Aug-09 10:30N 37°06' E 025°22'0 0.2
2017-Aug-09 10:00N 37°06' E 025°22'5 9.4
2017-Aug-09 09:30N 37°02' E 025°21'3 0.1
2017-Aug-08 09:13N 36°59' E 025°22'312.3
2017-Aug-08 09:01N 37°02' E 025°21'5 9.7
2017-Aug-08 08:30N 37°06' E 025°22'0 0.0
2017-Aug-08 08:00N 37°06' E 025°22'4 7.8
2017-Aug-08 07:30N 37°03' E 025°21'4 0.2
2017-Aug-07 11:45N 36°59' E 025°22'312.2
2017-Aug-07 11:30N 37°02' E 025°21'5 9.1
2017-Aug-07 11:00N 37°06' E 025°22'0 0.0
2017-Aug-07 10:30N 37°06' E 025°22'0 0.0
2017-Aug-07 10:00N 37°06' E 025°22'0 0.0
2017-Aug-07 09:30N 37°06' E 025°22'3 5.8
2017-Aug-07 09:00N 37°04' E 025°20'  

Dump ship's entire track history